METAR Data
IDs: Format: Raw Decoded Include TAF

Data at: 0133 UTC 12 May 2021

METAR for:TJBQ (Aquadilla/Hernandez, PR, US)
Text:TJBQ 120050Z 10013KT 10SM CLR 26/23 A3006
Temperature: 26.0°C ( 79°F)
Dewpoint: 23.0°C ( 73°F) [RH = 84%]
Pressure (altimeter):30.06 inches Hg (1018.0 mb)
Winds:from the E (100 degrees) at 15 MPH (13 knots; 6.7 m/s)
Visibility:10 or more sm (16+ km)
Ceiling:at least 12,000 feet AGL
Clouds:sky clear below 12,000 feet AGL